Time;durP1;ratioP1;P1;durP2;ratioP2;P2;SDS_P1;SDS_P2;PMS_P1;PMS_P2;Temp;Humidity;BMP_temperature;BMP_pressure;BME280_temperature;BME280_humidity;BME280_pressure;Samples;Min_cycle;Max_cycle;Signal;HPM_P1;HPM_P2
2023/08/23 05:58:48;;;;;;;13.70;7.00;;;;;;;30.03;37.78;100957.77;103843;1282;604253;-82
2023/08/23 06:01:14;;;;;;;9.90;6.60;;;;;;;30.20;37.24;100959.80;103793;1283;281529;-81
2023/08/23 06:03:40;;;;;;;14.20;6.90;;;;;;;30.19;37.31;100957.90;104407;1286;59276;-82
2023/08/23 06:06:07;;;;;;;17.70;7.40;;;;;;;30.17;37.31;100962.84;104250;1282;59341;-81
2023/08/23 06:08:33;;;;;;;16.20;6.70;;;;;;;30.15;37.14;100959.45;104305;1283;59327;-81
2023/08/23 06:10:59;;;;;;;10.40;6.60;;;;;;;30.13;37.18;100958.56;104185;1286;59438;-82
2023/08/23 06:13:24;;;;;;;8.90;6.50;;;;;;;30.12;37.07;100958.66;104286;1283;59281;-82
2023/08/23 06:15:50;;;;;;;9.10;6.40;;;;;;;30.13;37.12;100961.70;104199;1283;59402;-82
2023/08/23 06:18:16;;;;;;;15.70;6.70;;;;;;;30.12;36.82;100960.67;104146;1282;59752;-82
2023/08/23 06:20:43;;;;;;;8.90;6.40;;;;;;;30.12;36.80;100960.30;104305;1281;60802;-82
2023/08/23 06:23:09;;;;;;;11.90;6.30;;;;;;;30.11;36.84;100959.30;104154;1283;59662;-82
2023/08/23 06:25:34;;;;;;;12.00;6.70;;;;;;;30.12;36.79;100958.88;104074;1283;59769;-82
2023/08/23 06:28:00;;;;;;;9.50;6.90;;;;;;;30.11;36.83;100957.84;104016;1285;59884;-82
2023/08/23 06:30:26;;;;;;;9.90;6.20;;;;;;;30.11;36.79;100956.38;104044;1282;59784;-82
2023/08/23 06:32:51;;;;;;;12.40;6.40;;;;;;;30.12;36.79;100957.94;104109;1287;59569;-82
2023/08/23 06:35:17;;;;;;;12.10;6.40;;;;;;;30.13;36.81;100963.50;104022;1283;65423;-82
2023/08/23 06:37:43;;;;;;;12.50;6.50;;;;;;;30.13;36.55;100962.61;104245;1287;59791;-82
2023/08/23 06:40:12;;;;;;;9.70;6.70;;;;;;;30.13;36.63;100962.01;104106;1283;60697;-82
2023/08/23 06:42:38;;;;;;;11.50;6.40;;;;;;;30.15;36.65;100957.63;104508;1281;63800;-81
2023/08/23 06:45:05;;;;;;;9.20;5.90;;;;;;;30.17;36.73;100959.09;104314;1283;59772;-82
2023/08/23 06:47:31;;;;;;;8.80;6.30;;;;;;;30.17;36.69;100958.45;104422;1283;59777;-83
2023/08/23 06:49:57;;;;;;;12.90;6.50;;;;;;;30.18;36.65;100956.33;104179;1284;59745;-83
2023/08/23 06:52:23;;;;;;;8.60;6.00;;;;;;;30.20;36.41;100959.67;104321;1284;59752;-84
2023/08/23 06:54:50;;;;;;;11.80;6.40;;;;;;;30.21;36.35;100958.83;104311;1284;59826;-83
2023/08/23 06:57:15;;;;;;;9.10;6.20;;;;;;;30.22;36.39;100960.54;104319;1285;59708;-84
2023/08/23 06:59:41;;;;;;;9.80;6.50;;;;;;;30.22;36.36;100957.91;104241;1287;60206;-84
2023/08/23 07:02:07;;;;;;;9.40;6.50;;;;;;;30.23;36.28;100958.36;104152;1284;59805;-84
2023/08/23 07:04:32;;;;;;;9.80;6.10;;;;;;;30.24;36.29;100954.79;104195;1285;59774;-82
2023/08/23 07:06:58;;;;;;;9.10;6.30;;;;;;;30.25;36.27;100955.09;104106;1283;64097;-84
2023/08/23 07:09:24;;;;;;;9.40;6.50;;;;;;;30.25;36.15;100951.79;104278;1283;59757;-82
2023/08/23 07:11:49;;;;;;;10.00;6.10;;;;;;;30.26;36.22;100950.94;104162;1283;59790;-82
2023/08/23 07:14:15;;;;;;;12.60;6.80;;;;;;;30.28;36.46;100953.16;104292;1283;59656;-81
2023/08/23 07:16:40;;;;;;;8.30;6.10;;;;;;;30.29;36.51;100954.48;104138;1285;59774;-82
2023/08/23 07:19:06;;;;;;;11.00;6.10;;;;;;;30.31;36.55;100958.44;104193;1285;59748;-84
2023/08/23 07:21:32;;;;;;;9.90;6.40;;;;;;;30.32;36.60;100955.30;104223;1289;59826;-84
2023/08/23 07:23:57;;;;;;;10.70;7.00;;;;;;;30.33;36.48;100954.96;104122;1285;59778;-82
2023/08/23 07:26:24;;;;;;;9.50;5.80;;;;;;;30.34;36.56;100955.81;104285;1283;59727;-82
2023/08/23 07:28:49;;;;;;;12.90;6.30;;;;;;;30.35;36.44;100960.39;104088;1283;59703;-82
2023/08/23 07:31:15;;;;;;;9.60;6.40;;;;;;;30.35;36.53;100958.38;104159;1283;59834;-81
2023/08/23 07:33:41;;;;;;;11.80;6.20;;;;;;;30.36;36.62;100955.35;104087;1287;59927;-82
2023/08/23 07:36:09;;;;;;;13.70;6.80;;;;;;;30.36;36.47;100956.95;104182;1283;59718;-82
2023/08/23 07:38:36;;;;;;;12.20;6.30;;;;;;;30.37;36.48;100958.71;104220;1282;63867;-82
2023/08/23 07:41:05;;;;;;;9.80;6.50;;;;;;;30.37;36.56;100957.79;104344;1283;59754;-82
2023/08/23 07:43:31;;;;;;;11.90;7.20;;;;;;;30.38;36.54;100957.36;104177;1283;59888;-82
2023/08/23 07:45:59;;;;;;;10.70;7.00;;;;;;;30.38;36.51;100960.63;104159;1285;59808;-82
2023/08/23 07:48:25;;;;;;;11.40;6.60;;;;;;;30.38;36.52;100955.70;104217;1283;63830;-82
2023/08/23 07:50:51;;;;;;;8.70;6.10;;;;;;;30.38;36.50;100954.54;104399;1285;59742;-82
2023/08/23 07:53:17;;;;;;;10.90;6.90;;;;;;;30.39;36.47;100957.58;104364;1283;59691;-82
2023/08/23 07:55:43;;;;;;;12.20;7.10;;;;;;;30.40;36.23;100956.58;104245;1283;59786;-84
2023/08/23 07:58:09;;;;;;;9.40;6.40;;;;;;;30.38;36.18;100955.25;104197;1283;59776;-83
2023/08/23 08:00:34;;;;;;;10.40;6.50;;;;;;;30.39;36.28;100955.35;104202;1285;59780;-82
2023/08/23 08:03:02;;;;;;;10.40;7.00;;;;;;;30.39;36.25;100952.05;104114;1285;59785;-82
2023/08/23 08:05:28;;;;;;;9.10;6.40;;;;;;;30.39;36.23;100946.80;104228;1283;59715;-81
2023/08/23 08:07:53;;;;;;;11.30;6.20;;;;;;;30.39;36.27;100945.24;104207;1285;59772;-82
2023/08/23 08:10:19;;;;;;;14.20;7.10;;;;;;;30.39;36.27;100943.74;104066;1283;59865;-81
2023/08/23 08:12:45;;;;;;;12.00;6.80;;;;;;;30.39;35.99;100936.52;104174;1283;64216;-82
2023/08/23 08:15:12;;;;;;;10.70;6.60;;;;;;;30.38;36.11;100934.96;104278;1285;59780;-82
2023/08/23 08:17:39;;;;;;;10.00;6.50;;;;;;;30.38;35.99;100931.33;104403;1283;59786;-81
2023/08/23 08:20:08;;;;;;;8.50;6.50;;;;;;;30.39;36.12;100931.29;104344;1285;59811;-82
2023/08/23 08:22:34;;;;;;;;;;;;;;;30.39;35.99;100929.11;104647;1284;64291;-82
2023/08/23 08:25:00;;;;;;;10.10;6.40;;;;;;;30.37;36.09;100932.61;104395;1285;59877;-82
2023/08/23 08:27:25;;;;;;;8.90;6.60;;;;;;;30.37;36.08;100930.70;104205;1283;59701;-82
2023/08/23 08:29:51;;;;;;;9.90;6.70;;;;;;;30.37;35.82;100929.59;104398;1283;59793;-82
2023/08/23 08:32:17;;;;;;;9.70;6.20;;;;;;;30.38;35.70;100931.22;104159;1285;59698;-82
2023/08/23 08:34:43;;;;;;;12.10;7.00;;;;;;;30.38;35.78;100930.67;104354;1284;60961;-82
2023/08/23 08:37:08;;;;;;;7.40;6.60;;;;;;;30.38;35.85;100928.05;104637;1284;59699;-81
2023/08/23 08:39:34;;;;;;;8.90;6.40;;;;;;;30.39;35.85;100923.41;104273;1285;59658;-82
2023/08/23 08:41:59;;;;;;;9.00;6.70;;;;;;;30.39;35.65;100920.13;104239;1284;59824;-82
2023/08/23 08:44:25;;;;;;;8.50;6.60;;;;;;;30.40;35.77;100915.73;104246;1288;59774;-82
2023/08/23 08:46:52;;;;;;;8.10;6.60;;;;;;;30.40;35.76;100915.36;104221;1283;59808;-82
2023/08/23 08:49:18;;;;;;;11.90;7.00;;;;;;;30.40;35.76;100915.32;104197;1283;59917;-82
2023/08/23 08:51:49;;;;;;;8.60;6.70;;;;;;;30.41;35.63;100916.34;104251;1284;59719;-82
2023/08/23 08:54:15;;;;;;;7.50;6.40;;;;;;;30.40;35.73;100914.37;104391;1283;64223;-82
2023/08/23 08:56:42;;;;;;;10.00;6.80;;;;;;;30.41;35.79;100911.40;104210;1284;59637;-82
2023/08/23 08:59:08;;;;;;;9.30;6.40;;;;;;;30.41;35.74;100907.39;104397;1283;59657;-82
2023/08/23 09:01:35;;;;;;;9.00;7.10;;;;;;;30.42;35.88;100910.02;104173;1284;59792;-82
2023/08/23 09:04:00;;;;;;;9.10;6.60;;;;;;;30.43;35.79;100906.67;104170;1288;59859;-82
2023/08/23 09:06:26;;;;;;;11.30;7.30;;;;;;;30.43;35.70;100901.58;104198;1284;59789;-83
2023/08/23 09:08:52;;;;;;;10.20;6.50;;;;;;;30.44;35.85;100906.04;104260;1284;59741;-83
2023/08/23 09:11:17;;;;;;;9.50;6.50;;;;;;;30.44;35.81;100895.81;104210;1284;59715;-83
2023/08/23 09:13:44;;;;;;;9.40;6.30;;;;;;;30.44;35.82;100892.17;104143;1283;59829;-83
2023/08/23 09:16:09;;;;;;;9.60;7.00;;;;;;;30.45;35.80;100888.48;104022;1284;59782;-83
2023/08/23 09:18:35;;;;;;;9.00;6.80;;;;;;;30.45;35.74;100887.75;104138;1289;60154;-82
2023/08/23 09:21:01;;;;;;;7.90;6.50;;;;;;;30.45;35.73;100880.34;104151;1284;59784;-83
2023/08/23 09:23:36;;;;;;;9.10;6.50;;;;;;;30.45;35.66;100877.45;104276;1283;60809;-83
2023/08/23 09:26:02;;;;;;;8.40;6.40;;;;;;;30.45;35.77;100877.07;104256;1285;65079;-83
2023/08/23 09:28:29;;;;;;;9.90;6.60;;;;;;;30.45;35.82;100872.84;104548;1284;59647;-83
2023/08/23 09:30:54;;;;;;;8.60;6.70;;;;;;;30.46;35.85;100867.88;104186;1285;59751;-83
2023/08/23 09:33:20;;;;;;;8.20;6.00;;;;;;;30.47;35.90;100864.90;104322;1284;59823;-83
2023/08/23 09:35:48;;;;;;;9.70;6.70;;;;;;;30.47;35.87;100864.70;104275;1285;59856;-83
2023/08/23 09:38:23;;;;;;;10.10;6.40;;;;;;;30.46;35.88;100860.20;104350;1283;59789;-83
2023/08/23 09:40:48;;;;;;;7.80;6.70;;;;;;;30.47;35.82;100863.02;104301;1285;60064;-83
2023/08/23 09:43:17;;;;;;;9.10;6.50;;;;;;;30.48;35.94;100859.66;104386;1287;59788;-83
2023/08/23 09:45:43;;;;;;;;;;;;;;;30.48;35.76;100858.05;104073;1290;64016;-83
2023/08/23 09:48:13;;;;;;;9.70;6.60;;;;;;;30.46;35.85;100856.80;104274;1284;59830;-83
2023/08/23 09:50:38;;;;;;;9.00;6.60;;;;;;;30.47;35.95;100855.80;104055;1283;59742;-83
2023/08/23 09:53:05;;;;;;;8.20;6.60;;;;;;;30.47;35.94;100857.95;104250;1285;60244;-83
2023/08/23 09:55:37;;;;;;;8.20;6.50;;;;;;;30.47;35.85;100856.83;104386;1283;59787;-83
2023/08/23 09:58:03;;;;;;;9.60;6.10;;;;;;;30.47;35.75;100851.91;104250;1285;59685;-83
2023/08/23 10:00:28;;;;;;;8.90;6.60;;;;;;;30.48;35.86;100846.77;104247;1283;59774;-83
2023/08/23 10:02:56;;;;;;;11.60;6.70;;;;;;;30.48;35.89;100840.94;104340;1284;60398;-83
2023/08/23 10:05:26;;;;;;;8.20;6.30;;;;;;;30.48;35.98;100832.38;104207;1284;64994;-83
2023/08/23 10:07:54;;;;;;;11.00;6.60;;;;;;;30.49;35.83;100832.48;104158;1284;60504;-83
2023/08/23 10:10:20;;;;;;;7.90;6.60;;;;;;;30.49;35.87;100830.31;104369;1284;60448;-82
2023/08/23 10:12:51;;;;;;;8.50;6.10;;;;;;;30.49;35.98;100827.18;104265;1287;61272;-82
2023/08/23 10:15:18;;;;;;;10.50;7.10;;;;;;;30.50;35.86;100827.45;104163;1285;64997;-83
2023/08/23 10:17:45;;;;;;;9.10;6.60;;;;;;;30.50;36.01;100824.71;104362;1284;60452;-83
2023/08/23 10:20:11;;;;;;;9.50;6.70;;;;;;;30.51;35.99;100821.42;104167;1285;60475;-83
2023/08/23 10:22:37;;;;;;;8.90;6.40;;;;;;;30.51;35.96;100822.77;104250;1284;60621;-83
2023/08/23 10:25:17;;;;;;;9.10;6.70;;;;;;;30.52;35.93;100816.38;104141;1289;60580;-83
2023/08/23 10:27:45;;;;;;;10.00;6.50;;;;;;;30.52;35.83;100810.05;104144;1289;60507;-83
2023/08/23 10:30:15;;;;;;;9.20;6.40;;;;;;;30.52;36.00;100804.60;104098;1284;60656;-83
2023/08/23 10:32:43;;;;;;;8.10;6.00;;;;;;;30.53;35.93;100801.77;104227;1284;63953;-83
2023/08/23 10:35:28;;;;;;;10.60;6.40;;;;;;;30.53;35.95;100799.89;103913;1284;63953;-83
2023/08/23 10:37:54;;;;;;;7.40;6.30;;;;;;;30.53;35.90;100797.92;104305;1284;60516;-83
2023/08/23 10:40:26;;;;;;;7.50;6.20;;;;;;;30.53;35.93;100794.14;104160;1284;60850;-82
2023/08/23 10:42:52;;;;;;;8.60;6.40;;;;;;;30.53;35.99;100793.70;104098;1284;63671;-83
2023/08/23 10:45:18;;;;;;;9.50;6.80;;;;;;;30.53;36.00;100789.68;104220;1286;60654;-82
2023/08/23 10:47:43;;;;;;;7.70;6.30;;;;;;;30.54;36.17;100787.13;104095;1287;60567;-83
2023/08/23 10:50:10;;;;;;;9.00;6.30;;;;;;;30.54;36.02;100787.46;103936;1285;60611;-83
2023/08/23 10:52:35;;;;;;;7.80;6.80;;;;;;;30.53;36.03;100784.64;104189;1290;60464;-83
2023/08/23 10:55:01;;;;;;;11.20;6.60;;;;;;;30.54;36.01;100784.23;104056;1289;60584;-82
2023/08/23 10:57:26;;;;;;;7.90;6.70;;;;;;;30.53;35.91;100777.93;103966;1287;60585;-83
2023/08/23 10:59:52;;;;;;;7.50;6.20;;;;;;;30.53;35.99;100773.17;103805;1286;60970;-83
2023/08/23 11:02:18;;;;;;;8.60;6.60;;;;;;;30.53;35.88;100766.54;104018;1290;60659;-82
2023/08/23 11:04:44;;;;;;;7.60;6.60;;;;;;;30.53;35.94;100763.77;104200;1285;61133;-83
2023/08/23 11:07:11;;;;;;;8.20;6.50;;;;;;;30.53;35.96;100765.40;103962;1287;60666;-83
2023/08/23 11:09:36;;;;;;;11.60;6.70;;;;;;;30.53;35.93;100768.80;104110;1287;61225;-83
2023/08/23 11:12:05;;;;;;;7.70;6.40;;;;;;;30.53;35.90;100766.49;104091;1287;60650;-83
2023/08/23 11:14:32;;;;;;;9.30;6.50;;;;;;;30.54;35.92;100763.35;103962;1286;60628;-83
2023/08/23 11:16:57;;;;;;;8.10;6.60;;;;;;;30.53;35.96;100755.06;104298;1286;60482;-83
2023/08/23 11:19:23;;;;;;;7.60;6.50;;;;;;;30.54;35.78;100754.91;104280;1284;60679;-83
2023/08/23 11:21:49;;;;;;;7.70;6.50;;;;;;;30.53;35.83;100748.45;104413;1284;60561;-83
2023/08/23 11:24:14;;;;;;;8.30;6.20;;;;;;;30.53;35.94;100747.73;104346;1284;60568;-83
2023/08/23 11:26:40;;;;;;;7.70;6.30;;;;;;;30.54;36.03;100746.92;104460;1284;61196;-82
2023/08/23 11:29:05;;;;;;;8.30;6.40;;;;;;;30.55;36.01;100748.27;104170;1284;64843;-83
2023/08/23 11:31:35;;;;;;;7.20;6.20;;;;;;;30.55;36.02;100741.73;104032;1284;60982;-83
2023/08/23 11:34:07;;;;;;;8.00;6.30;;;;;;;30.55;35.84;100737.95;104021;1285;60532;-83
2023/08/23 11:36:33;;;;;;;7.40;6.60;;;;;;;30.55;35.98;100733.19;104228;1284;64086;-83
2023/08/23 11:39:04;;;;;;;8.80;6.50;;;;;;;30.55;35.87;100728.80;104177;1289;60574;-83
2023/08/23 11:41:34;;;;;;;8.50;7.30;;;;;;;30.56;35.81;100730.57;104310;1286;60478;-82
2023/08/23 11:44:17;;;;;;;8.50;6.70;;;;;;;30.56;35.80;100728.94;104185;1287;60541;-83
2023/08/23 11:46:43;;;;;;;8.50;6.30;;;;;;;30.56;35.94;100724.95;104158;1287;63810;-83
2023/08/23 11:49:09;;;;;;;7.90;6.30;;;;;;;30.57;35.89;100716.84;104020;1290;60625;-83
2023/08/23 11:51:44;;;;;;;8.10;6.50;;;;;;;30.57;35.87;100712.48;104044;1288;60497;-82
2023/08/23 11:54:10;;;;;;;9.90;6.60;;;;;;;30.57;35.87;100708.05;103891;1287;60487;-83
2023/08/23 11:56:43;;;;;;;7.00;6.20;;;;;;;30.58;35.88;100703.30;104109;1288;60629;-83
2023/08/23 11:59:09;;;;;;;9.50;6.70;;;;;;;30.58;35.70;100700.39;103745;1286;65040;-83
2023/08/23 12:01:36;;;;;;;7.70;6.30;;;;;;;30.58;35.78;100702.21;103902;1286;60554;-83
2023/08/23 12:04:02;;;;;;;7.30;6.20;;;;;;;30.58;35.67;100700.15;103790;1292;60654;-83
2023/08/23 12:06:29;;;;;;;7.90;6.80;;;;;;;30.58;35.78;100691.60;103839;1286;63875;-83
2023/08/23 12:08:54;;;;;;;8.70;6.70;;;;;;;30.59;35.84;100690.48;104194;1289;60578;-83
2023/08/23 12:11:20;;;;;;;7.90;6.30;;;;;;;30.59;35.65;100690.83;104075;1287;60971;-83
2023/08/23 12:13:46;;;;;;;7.90;7.00;;;;;;;30.59;35.61;100691.13;103948;1287;60592;-83
2023/08/23 12:16:11;;;;;;;8.00;6.80;;;;;;;30.60;35.61;100691.63;103697;1292;60580;-83
2023/08/23 12:18:37;;;;;;;7.50;6.50;;;;;;;30.60;35.71;100687.95;103994;1286;60621;-83
2023/08/23 12:21:04;;;;;;;8.10;6.80;;;;;;;30.61;35.63;100681.86;104002;1288;71780;-83
2023/08/23 12:23:30;;;;;;;8.90;6.60;;;;;;;30.61;35.80;100676.23;104127;1286;60622;-83
2023/08/23 12:25:56;;;;;;;7.80;6.60;;;;;;;30.62;35.78;100674.73;104112;1287;60518;-83
2023/08/23 12:28:22;;;;;;;7.40;6.30;;;;;;;30.62;35.68;100676.10;104110;1290;60650;-83
2023/08/23 12:30:47;;;;;;;7.50;6.60;;;;;;;30.63;35.65;100674.26;104058;1284;60644;-82
2023/08/23 12:33:13;;;;;;;8.90;6.60;;;;;;;30.62;35.63;100679.23;104222;1284;61149;-83
2023/08/23 12:35:39;;;;;;;8.00;6.80;;;;;;;30.63;35.65;100677.49;104001;1284;61029;-83
2023/08/23 12:38:05;;;;;;;8.60;6.90;;;;;;;30.63;35.66;100673.48;104239;1284;60533;-83
2023/08/23 12:40:31;;;;;;;7.70;6.40;;;;;;;30.64;35.61;100669.02;104092;1284;60545;-83
2023/08/23 12:42:56;;;;;;;8.80;6.80;;;;;;;30.65;35.54;100666.16;103931;1284;60571;-82
2023/08/23 12:45:22;;;;;;;8.80;6.80;;;;;;;30.65;35.57;100663.21;104166;1284;60685;-83
2023/08/23 12:47:48;;;;;;;7.60;6.70;;;;;;;30.66;35.58;100661.92;104155;1284;60577;-83
2023/08/23 12:50:13;;;;;;;7.80;6.50;;;;;;;30.66;35.67;100660.20;104160;1285;60647;-83
2023/08/23 12:52:39;;;;;;;7.30;6.40;;;;;;;30.66;35.60;100653.84;104093;1284;63590;-82
2023/08/23 12:55:05;;;;;;;11.80;6.90;;;;;;;30.67;35.60;100655.10;104171;1290;60539;-83
2023/08/23 12:57:32;;;;;;;7.70;6.90;;;;;;;30.67;35.70;100657.38;104228;1291;60506;-82
2023/08/23 12:59:58;;;;;;;8.50;6.10;;;;;;;30.67;35.71;100659.36;104217;1284;60581;-83
2023/08/23 13:02:24;;;;;;;8.50;7.00;;;;;;;30.68;35.61;100653.11;104143;1284;60606;-83
2023/08/23 13:04:49;;;;;;;7.60;6.60;;;;;;;30.69;35.83;100646.84;104003;1287;60657;-83
2023/08/23 13:07:15;;;;;;;7.70;6.20;;;;;;;30.68;35.77;100644.88;104111;1284;60965;-83
2023/08/23 13:09:41;;;;;;;7.80;6.50;;;;;;;30.69;35.74;100643.17;103958;1285;60597;-83
2023/08/23 13:12:07;;;;;;;8.30;6.50;;;;;;;30.69;35.82;100639.15;104079;1289;60490;-83
2023/08/23 13:14:32;;;;;;;7.60;6.40;;;;;;;30.70;35.82;100641.84;104067;1287;60588;-83
2023/08/23 13:16:58;;;;;;;8.40;6.60;;;;;;;30.70;35.82;100636.02;104041;1285;60592;-83
2023/08/23 13:19:24;;;;;;;7.60;6.50;;;;;;;30.70;35.84;100634.68;104004;1284;60656;-83
2023/08/23 13:21:50;;;;;;;8.50;7.00;;;;;;;30.70;35.86;100634.89;104054;1284;60660;-83
2023/08/23 13:24:22;;;;;;;8.30;6.30;;;;;;;30.70;35.84;100635.57;103989;1285;60500;-83
2023/08/23 13:26:48;;;;;;;8.90;6.60;;;;;;;30.70;35.85;100633.77;104095;1285;64818;-83
2023/08/23 13:29:14;;;;;;;8.40;6.70;;;;;;;30.70;35.91;100630.34;104109;1285;60687;-83
2023/08/23 13:31:39;;;;;;;8.60;6.50;;;;;;;30.71;35.98;100629.58;104084;1289;60647;-82
2023/08/23 13:34:06;;;;;;;7.40;6.60;;;;;;;30.71;35.88;100630.09;103790;1285;60576;-83
2023/08/23 13:36:31;;;;;;;7.70;6.60;;;;;;;30.70;35.95;100630.14;104362;1290;60608;-83
2023/08/23 13:38:57;;;;;;;7.40;6.50;;;;;;;30.70;35.83;100631.05;104138;1285;60631;-83
2023/08/23 13:41:23;;;;;;;7.70;6.90;;;;;;;30.70;35.83;100630.13;104090;1284;60542;-83
2023/08/23 13:43:49;;;;;;;7.40;6.40;;;;;;;30.70;35.90;100632.38;104206;1288;60573;-83
2023/08/23 13:46:14;;;;;;;8.60;6.60;;;;;;;30.70;35.87;100634.01;104128;1284;61184;-83
2023/08/23 13:48:40;;;;;;;7.70;6.30;;;;;;;30.70;36.01;100626.75;103998;1285;60583;-83
2023/08/23 13:51:09;;;;;;;7.40;6.20;;;;;;;30.70;35.99;100622.19;104009;1284;60573;-83
2023/08/23 13:53:35;;;;;;;7.30;6.50;;;;;;;30.70;35.98;100620.55;104201;1284;60596;-83
2023/08/23 13:56:01;;;;;;;8.00;6.60;;;;;;;30.70;35.88;100619.46;104058;1285;63815;-83
2023/08/23 13:58:27;;;;;;;7.60;6.50;;;;;;;30.70;36.00;100618.17;104240;1284;60502;-82
2023/08/23 14:00:52;;;;;;;8.10;6.50;;;;;;;30.70;35.99;100617.80;104302;1284;61362;-82
2023/08/23 14:03:18;;;;;;;7.60;6.40;;;;;;;30.69;35.99;100612.63;104380;1284;62508;-82
2023/08/23 14:05:43;;;;;;;7.40;6.10;;;;;;;30.70;35.92;100610.71;104454;1284;60561;-83
2023/08/23 14:08:09;;;;;;;7.70;6.50;;;;;;;30.71;35.97;100606.11;104316;1288;63809;-83
2023/08/23 14:10:34;;;;;;;8.20;6.50;;;;;;;30.71;35.93;100607.91;104323;1291;60592;-83
2023/08/23 14:13:00;;;;;;;7.20;6.50;;;;;;;30.71;36.00;100602.09;104158;1286;60586;-83
2023/08/23 14:15:25;;;;;;;7.10;6.40;;;;;;;30.71;36.04;100595.68;104120;1284;60535;-83
2023/08/23 14:17:51;;;;;;;9.20;6.60;;;;;;;30.72;36.07;100600.72;104102;1285;60660;-83
2023/08/23 14:20:17;;;;;;;7.10;6.30;;;;;;;30.72;36.09;100597.25;104481;1285;63699;-83
2023/08/23 14:22:43;;;;;;;7.30;6.30;;;;;;;30.72;36.16;100598.27;104203;1290;60506;-83
2023/08/23 14:25:08;;;;;;;8.30;6.40;;;;;;;30.73;36.05;100591.31;104312;1284;60561;-83
2023/08/23 14:27:34;;;;;;;7.00;6.20;;;;;;;30.73;36.13;100591.48;104276;1285;60641;-83
2023/08/23 14:29:59;;;;;;;6.70;6.00;;;;;;;30.73;36.12;100589.10;104093;1289;60587;-82
2023/08/23 14:32:29;;;;;;;7.50;6.40;;;;;;;30.74;36.13;100588.69;103769;1292;60766;-82
2023/08/23 14:34:54;;;;;;;7.50;6.40;;;;;;;30.74;36.12;100582.52;103980;1285;65019;-83
2023/08/23 14:37:20;;;;;;;7.20;6.50;;;;;;;30.73;36.04;100576.91;104166;1290;59383;-82
2023/08/23 14:39:47;;;;;;;8.20;6.60;;;;;;;30.73;36.11;100576.58;104160;1284;60576;-82
2023/08/23 14:42:13;;;;;;;7.10;6.30;;;;;;;30.73;36.23;100573.10;104044;1285;60594;-83
2023/08/23 14:44:40;;;;;;;8.00;6.20;;;;;;;30.74;36.01;100574.45;104313;1285;60595;-83
2023/08/23 14:47:07;;;;;;;7.50;6.30;;;;;;;30.74;36.11;100575.71;104373;1290;60575;-83
2023/08/23 14:49:33;;;;;;;7.40;6.20;;;;;;;30.75;36.10;100570.02;104014;1284;60559;-83
2023/08/23 14:51:58;;;;;;;7.30;6.10;;;;;;;30.75;36.28;100569.15;104139;1289;60570;-83
2023/08/23 14:54:24;;;;;;;7.30;6.60;;;;;;;30.75;36.26;100566.58;104273;1285;61116;-83
2023/08/23 14:56:50;;;;;;;7.40;6.30;;;;;;;30.75;36.21;100565.23;104192;1285;61039;-83
2023/08/23 14:59:15;;;;;;;7.40;6.70;;;;;;;30.76;36.09;100560.10;104095;1284;60444;-83
2023/08/23 15:01:41;;;;;;;8.00;6.80;;;;;;;30.76;36.14;100556.42;104010;1285;61457;-83
2023/08/23 15:04:06;;;;;;;7.90;6.50;;;;;;;30.76;36.16;100552.79;104076;1285;60589;-83
2023/08/23 15:06:32;;;;;;;7.20;6.30;;;;;;;30.76;36.33;100551.52;104172;1285;60489;-82
2023/08/23 15:09:00;;;;;;;7.50;6.50;;;;;;;30.76;36.09;100546.41;103971;1290;60619;-83
2023/08/23 15:11:25;;;;;;;6.80;5.90;;;;;;;30.76;36.16;100548.79;104198;1284;60496;-83
2023/08/23 15:13:51;;;;;;;6.70;6.00;;;;;;;30.77;36.26;100551.12;104050;1284;60562;-83
2023/08/23 15:16:17;;;;;;;6.80;6.00;;;;;;;30.76;36.34;100549.30;104125;1285;60491;-83
2023/08/23 15:18:43;;;;;;;6.80;6.10;;;;;;;30.77;36.29;100548.77;103962;1285;65092;-83
2023/08/23 15:21:08;;;;;;;7.90;6.30;;;;;;;30.77;36.31;100551.61;103996;1290;61182;-83
2023/08/23 15:23:35;;;;;;;6.90;6.20;;;;;;;30.77;36.25;100548.39;104126;1287;60679;-83
2023/08/23 15:26:01;;;;;;;7.20;6.50;;;;;;;30.77;36.33;100550.90;104069;1285;60502;-83
2023/08/23 15:28:26;;;;;;;7.00;6.30;;;;;;;30.78;36.32;100548.10;104264;1284;60590;-83
2023/08/23 15:30:52;;;;;;;7.60;6.50;;;;;;;30.77;36.29;100546.36;104180;1284;61066;-83
2023/08/23 15:33:18;;;;;;;7.10;6.40;;;;;;;30.77;36.25;100547.84;104071;1286;60496;-83
2023/08/23 15:35:43;;;;;;;8.00;6.40;;;;;;;30.76;36.38;100548.07;104222;1286;60456;-83
2023/08/23 15:38:09;;;;;;;6.80;6.10;;;;;;;30.76;36.53;100549.13;103976;1285;61148;-83
2023/08/23 15:40:36;;;;;;;6.60;5.90;;;;;;;30.75;36.42;100547.39;103935;1287;61258;-82
2023/08/23 15:43:01;;;;;;;6.80;5.90;;;;;;;30.75;36.46;100544.88;104152;1284;60479;-83
2023/08/23 15:45:27;;;;;;;7.40;6.20;;;;;;;30.75;36.53;100543.83;104108;1284;60597;-83
2023/08/23 15:47:52;;;;;;;7.20;6.20;;;;;;;30.75;36.38;100543.12;104066;1288;60487;-83
2023/08/23 15:50:18;;;;;;;6.60;5.90;;;;;;;30.74;36.33;100540.16;104025;1285;60617;-83
2023/08/23 15:52:44;;;;;;;6.70;6.00;;;;;;;30.73;36.50;100542.38;104085;1290;60608;-83
2023/08/23 15:55:10;;;;;;;7.50;6.20;;;;;;;30.73;36.56;100539.89;104153;1286;60577;-83
2023/08/23 15:57:36;;;;;;;6.70;5.90;;;;;;;30.73;36.46;100542.48;104080;1290;60935;-82
2023/08/23 16:00:03;;;;;;;7.50;6.20;;;;;;;30.72;36.52;100543.06;104186;1289;60467;-83
2023/08/23 16:02:29;;;;;;;7.10;6.40;;;;;;;30.72;36.46;100538.95;104178;1285;60650;-83
2023/08/23 16:04:54;;;;;;;6.50;5.80;;;;;;;30.72;36.51;100543.48;104034;1284;61219;-82
2023/08/23 16:07:20;;;;;;;6.60;5.90;;;;;;;30.72;36.49;100543.17;104358;1290;60582;-82
2023/08/23 16:09:46;;;;;;;7.00;6.30;;;;;;;30.71;36.46;100547.56;104267;1288;60448;-83
2023/08/23 16:12:11;;;;;;;6.80;6.00;;;;;;;30.71;36.49;100547.74;104194;1285;60589;-82
2023/08/23 16:14:40;;;;;;;7.00;6.20;;;;;;;30.72;36.49;100547.36;104372;1284;59354;-83
2023/08/23 16:17:06;;;;;;;6.70;6.00;;;;;;;30.71;36.61;100549.02;103986;1284;60675;-83
2023/08/23 16:19:31;;;;;;;7.00;6.30;;;;;;;30.70;36.55;100549.31;104015;1284;60557;-83
2023/08/23 16:21:57;;;;;;;6.90;5.90;;;;;;;30.71;36.56;100549.82;104111;1290;60503;-83
2023/08/23 16:24:22;;;;;;;6.60;5.90;;;;;;;30.70;36.59;100548.46;104109;1288;60569;-83
2023/08/23 16:26:48;;;;;;;6.70;6.00;;;;;;;30.70;36.56;100555.71;104022;1285;60550;-83
2023/08/23 16:29:14;;;;;;;6.30;5.70;;;;;;;30.70;36.55;100556.77;104078;1284;60575;-83
2023/08/23 16:31:39;;;;;;;6.80;6.10;;;;;;;30.70;36.49;100557.52;104081;1290;60579;-83
2023/08/23 16:34:05;;;;;;;8.30;6.50;;;;;;;30.70;36.54;100557.59;104161;1284;60564;-83
2023/08/23 16:36:31;;;;;;;6.90;6.10;;;;;;;30.69;36.57;100563.45;104105;1284;60500;-83
2023/08/23 16:38:56;;;;;;;6.50;5.80;;;;;;;30.69;36.79;100562.49;104019;1285;60566;-83
2023/08/23 16:41:22;;;;;;;7.20;5.80;;;;;;;30.69;36.62;100560.52;104162;1289;60638;-83
2023/08/23 16:43:48;;;;;;;7.00;6.30;;;;;;;30.69;36.63;100561.47;103993;1287;60515;-83
2023/08/23 16:46:15;;;;;;;6.50;5.80;;;;;;;30.68;36.61;100565.36;104107;1284;63901;-83
2023/08/23 16:48:41;;;;;;;6.80;6.10;;;;;;;30.68;36.49;100563.55;104217;1290;60900;-83
2023/08/23 16:51:08;;;;;;;7.00;6.10;;;;;;;30.68;36.58;100564.81;103990;1290;60590;-83
2023/08/23 16:53:33;;;;;;;7.20;6.10;;;;;;;30.68;36.61;100563.90;104064;1284;60558;-83
2023/08/23 16:55:59;;;;;;;7.30;6.10;;;;;;;30.68;36.59;100563.35;104062;1289;60578;-83
2023/08/23 16:58:24;;;;;;;7.40;5.90;;;;;;;30.68;36.59;100568.27;104023;1286;61278;-82
2023/08/23 17:00:50;;;;;;;6.80;6.00;;;;;;;30.68;36.68;100574.31;104216;1289;60319;-83
2023/08/23 17:03:15;;;;;;;6.50;5.90;;;;;;;30.68;36.59;100576.70;104302;1284;60381;-83
2023/08/23 17:05:41;;;;;;;6.70;6.00;;;;;;;30.67;36.64;100575.07;103997;1284;60578;-83
2023/08/23 17:08:07;;;;;;;7.00;6.20;;;;;;;30.68;36.56;100580.68;104139;1284;60547;-82
2023/08/23 17:10:32;;;;;;;6.10;5.50;;;;;;;30.67;36.65;100584.58;104086;1284;60952;-83